sensor_id;sensor_type;location;lat;lon;timestamp;P1;durP1;ratioP1;P2;durP2;ratioP2
67751;SDS011;54551;51.068;5.826;2023-03-11T00:02:16;8.47;;;1.83;;
67751;SDS011;54551;51.068;5.826;2023-03-11T00:04:43;6.20;;;2.00;;
67751;SDS011;54551;51.068;5.826;2023-03-11T00:07:09;6.33;;;2.20;;
67751;SDS011;54551;51.068;5.826;2023-03-11T00:09:36;7.70;;;2.43;;
67751;SDS011;54551;51.068;5.826;2023-03-11T00:12:02;7.13;;;2.60;;
67751;SDS011;54551;51.068;5.826;2023-03-11T00:14:29;4.10;;;1.57;;
67751;SDS011;54551;51.068;5.826;2023-03-11T00:16:55;9.93;;;2.37;;
67751;SDS011;54551;51.068;5.826;2023-03-11T00:19:21;6.93;;;2.03;;
67751;SDS011;54551;51.068;5.826;2023-03-11T00:21:47;7.13;;;2.30;;
67751;SDS011;54551;51.068;5.826;2023-03-11T00:24:13;8.77;;;2.10;;
67751;SDS011;54551;51.068;5.826;2023-03-11T00:26:38;9.17;;;2.70;;
67751;SDS011;54551;51.068;5.826;2023-03-11T00:29:04;6.37;;;2.37;;
67751;SDS011;54551;51.068;5.826;2023-03-11T00:31:30;7.50;;;2.30;;
67751;SDS011;54551;51.068;5.826;2023-03-11T00:33:56;9.30;;;2.30;;
67751;SDS011;54551;51.068;5.826;2023-03-11T00:36:29;4.67;;;2.10;;
67751;SDS011;54551;51.068;5.826;2023-03-11T00:38:58;4.33;;;1.70;;
67751;SDS011;54551;51.068;5.826;2023-03-11T00:41:27;8.17;;;2.23;;
67751;SDS011;54551;51.068;5.826;2023-03-11T00:43:53;10.93;;;2.37;;
67751;SDS011;54551;51.068;5.826;2023-03-11T00:46:19;7.27;;;2.10;;
67751;SDS011;54551;51.068;5.826;2023-03-11T00:48:45;6.93;;;2.13;;
67751;SDS011;54551;51.068;5.826;2023-03-11T00:51:14;9.93;;;2.60;;
67751;SDS011;54551;51.068;5.826;2023-03-11T00:53:40;6.87;;;2.37;;
67751;SDS011;54551;51.068;5.826;2023-03-11T00:56:08;10.03;;;1.80;;
67751;SDS011;54551;51.068;5.826;2023-03-11T00:58:37;7.67;;;2.90;;
67751;SDS011;54551;51.068;5.826;2023-03-11T01:01:09;6.33;;;2.50;;
67751;SDS011;54551;51.068;5.826;2023-03-11T01:03:37;5.37;;;2.27;;
67751;SDS011;54551;51.068;5.826;2023-03-11T01:06:04;10.33;;;2.40;;
67751;SDS011;54551;51.068;5.826;2023-03-11T01:08:30;7.23;;;2.40;;
67751;SDS011;54551;51.068;5.826;2023-03-11T01:10:56;9.73;;;2.47;;
67751;SDS011;54551;51.068;5.826;2023-03-11T01:13:23;8.30;;;2.20;;
67751;SDS011;54551;51.068;5.826;2023-03-11T01:15:50;6.67;;;2.20;;
67751;SDS011;54551;51.068;5.826;2023-03-11T01:18:16;10.87;;;2.87;;
67751;SDS011;54551;51.068;5.826;2023-03-11T01:20:42;4.90;;;1.90;;
67751;SDS011;54551;51.068;5.826;2023-03-11T01:23:10;6.40;;;2.20;;
67751;SDS011;54551;51.068;5.826;2023-03-11T01:25:36;9.90;;;2.60;;
67751;SDS011;54551;51.068;5.826;2023-03-11T01:28:02;13.80;;;2.47;;
67751;SDS011;54551;51.068;5.826;2023-03-11T01:30:29;9.13;;;2.80;;
67751;SDS011;54551;51.068;5.826;2023-03-11T01:32:56;9.80;;;2.70;;
67751;SDS011;54551;51.068;5.826;2023-03-11T01:35:23;9.37;;;3.03;;
67751;SDS011;54551;51.068;5.826;2023-03-11T01:37:52;7.37;;;2.83;;
67751;SDS011;54551;51.068;5.826;2023-03-11T01:42:57;8.93;;;2.93;;
67751;SDS011;54551;51.068;5.826;2023-03-11T01:45:41;5.80;;;2.63;;
67751;SDS011;54551;51.068;5.826;2023-03-11T01:48:20;7.43;;;2.53;;
67751;SDS011;54551;51.068;5.826;2023-03-11T01:50:47;7.13;;;2.60;;
67751;SDS011;54551;51.068;5.826;2023-03-11T01:53:15;7.27;;;2.60;;
67751;SDS011;54551;51.068;5.826;2023-03-11T01:55:42;10.40;;;3.10;;
67751;SDS011;54551;51.068;5.826;2023-03-11T01:58:10;8.67;;;2.80;;
67751;SDS011;54551;51.068;5.826;2023-03-11T02:00:42;5.73;;;2.73;;
67751;SDS011;54551;51.068;5.826;2023-03-11T02:03:10;7.30;;;2.87;;
67751;SDS011;54551;51.068;5.826;2023-03-11T02:05:42;10.87;;;2.77;;
67751;SDS011;54551;51.068;5.826;2023-03-11T02:08:08;10.33;;;3.13;;
67751;SDS011;54551;51.068;5.826;2023-03-11T02:10:34;11.10;;;3.10;;
67751;SDS011;54551;51.068;5.826;2023-03-11T02:13:03;8.10;;;2.83;;
67751;SDS011;54551;51.068;5.826;2023-03-11T02:15:29;9.07;;;2.87;;
67751;SDS011;54551;51.068;5.826;2023-03-11T02:17:56;8.13;;;3.00;;
67751;SDS011;54551;51.068;5.826;2023-03-11T02:23:11;9.33;;;2.87;;
67751;SDS011;54551;51.068;5.826;2023-03-11T02:28:09;7.30;;;2.70;;
67751;SDS011;54551;51.068;5.826;2023-03-11T02:30:39;9.20;;;2.63;;
67751;SDS011;54551;51.068;5.826;2023-03-11T02:33:06;9.00;;;3.20;;
67751;SDS011;54551;51.068;5.826;2023-03-11T02:35:34;6.67;;;2.47;;
67751;SDS011;54551;51.068;5.826;2023-03-11T02:38:00;11.20;;;3.50;;
67751;SDS011;54551;51.068;5.826;2023-03-11T02:43:32;7.77;;;2.90;;
67751;SDS011;54551;51.068;5.826;2023-03-11T02:46:05;5.20;;;3.07;;
67751;SDS011;54551;51.068;5.826;2023-03-11T02:48:34;7.13;;;2.77;;
67751;SDS011;54551;51.068;5.826;2023-03-11T02:51:02;7.93;;;3.07;;
67751;SDS011;54551;51.068;5.826;2023-03-11T02:53:29;10.30;;;3.30;;
67751;SDS011;54551;51.068;5.826;2023-03-11T02:55:59;9.50;;;3.00;;
67751;SDS011;54551;51.068;5.826;2023-03-11T02:58:27;8.13;;;2.77;;
67751;SDS011;54551;51.068;5.826;2023-03-11T03:00:53;9.77;;;2.80;;
67751;SDS011;54551;51.068;5.826;2023-03-11T03:03:19;10.20;;;2.87;;
67751;SDS011;54551;51.068;5.826;2023-03-11T03:05:45;6.20;;;3.40;;
67751;SDS011;54551;51.068;5.826;2023-03-11T03:08:12;11.57;;;3.20;;
67751;SDS011;54551;51.068;5.826;2023-03-11T03:10:39;8.40;;;3.70;;
67751;SDS011;54551;51.068;5.826;2023-03-11T03:13:05;8.80;;;2.97;;
67751;SDS011;54551;51.068;5.826;2023-03-11T03:15:31;9.10;;;3.10;;
67751;SDS011;54551;51.068;5.826;2023-03-11T03:17:58;9.27;;;2.93;;
67751;SDS011;54551;51.068;5.826;2023-03-11T03:20:25;8.47;;;3.40;;
67751;SDS011;54551;51.068;5.826;2023-03-11T03:22:54;16.00;;;3.33;;
67751;SDS011;54551;51.068;5.826;2023-03-11T03:25:25;10.47;;;3.30;;
67751;SDS011;54551;51.068;5.826;2023-03-11T03:27:52;6.40;;;3.17;;
67751;SDS011;54551;51.068;5.826;2023-03-11T03:30:18;11.07;;;3.60;;
67751;SDS011;54551;51.068;5.826;2023-03-11T03:32:44;8.63;;;3.33;;
67751;SDS011;54551;51.068;5.826;2023-03-11T03:35:14;9.17;;;3.87;;
67751;SDS011;54551;51.068;5.826;2023-03-11T03:38:12;12.90;;;3.90;;
67751;SDS011;54551;51.068;5.826;2023-03-11T03:40:44;10.07;;;3.30;;
67751;SDS011;54551;51.068;5.826;2023-03-11T03:43:12;9.33;;;3.77;;
67751;SDS011;54551;51.068;5.826;2023-03-11T03:45:41;10.63;;;3.70;;
67751;SDS011;54551;51.068;5.826;2023-03-11T03:48:07;7.20;;;3.60;;
67751;SDS011;54551;51.068;5.826;2023-03-11T03:50:38;7.17;;;3.10;;
67751;SDS011;54551;51.068;5.826;2023-03-11T03:53:05;5.87;;;3.07;;
67751;SDS011;54551;51.068;5.826;2023-03-11T03:55:31;6.50;;;3.37;;
67751;SDS011;54551;51.068;5.826;2023-03-11T03:57:59;7.17;;;3.30;;
67751;SDS011;54551;51.068;5.826;2023-03-11T04:00:29;8.93;;;3.50;;
67751;SDS011;54551;51.068;5.826;2023-03-11T04:02:59;8.57;;;3.70;;
67751;SDS011;54551;51.068;5.826;2023-03-11T04:05:33;8.13;;;3.67;;
67751;SDS011;54551;51.068;5.826;2023-03-11T04:07:59;7.93;;;4.00;;
67751;SDS011;54551;51.068;5.826;2023-03-11T04:10:26;9.57;;;3.43;;
67751;SDS011;54551;51.068;5.826;2023-03-11T04:12:53;9.90;;;3.57;;
67751;SDS011;54551;51.068;5.826;2023-03-11T04:15:19;8.43;;;3.87;;
67751;SDS011;54551;51.068;5.826;2023-03-11T04:17:45;11.37;;;4.23;;
67751;SDS011;54551;51.068;5.826;2023-03-11T04:20:12;8.53;;;3.50;;
67751;SDS011;54551;51.068;5.826;2023-03-11T04:22:39;8.53;;;3.60;;
67751;SDS011;54551;51.068;5.826;2023-03-11T04:25:06;7.10;;;3.50;;
67751;SDS011;54551;51.068;5.826;2023-03-11T04:27:32;10.80;;;3.60;;
67751;SDS011;54551;51.068;5.826;2023-03-11T04:29:59;10.20;;;4.13;;
67751;SDS011;54551;51.068;5.826;2023-03-11T04:32:25;11.70;;;3.90;;
67751;SDS011;54551;51.068;5.826;2023-03-11T04:34:51;7.80;;;3.80;;
67751;SDS011;54551;51.068;5.826;2023-03-11T04:37:17;10.97;;;4.13;;
67751;SDS011;54551;51.068;5.826;2023-03-11T04:39:43;9.47;;;3.90;;
67751;SDS011;54551;51.068;5.826;2023-03-11T04:42:09;9.07;;;4.40;;
67751;SDS011;54551;51.068;5.826;2023-03-11T04:44:40;9.70;;;4.60;;
67751;SDS011;54551;51.068;5.826;2023-03-11T04:47:06;11.30;;;4.20;;
67751;SDS011;54551;51.068;5.826;2023-03-11T04:49:32;11.07;;;3.57;;
67751;SDS011;54551;51.068;5.826;2023-03-11T04:51:58;7.10;;;3.83;;
67751;SDS011;54551;51.068;5.826;2023-03-11T04:54:25;12.90;;;4.50;;
67751;SDS011;54551;51.068;5.826;2023-03-11T04:56:51;7.43;;;4.03;;
67751;SDS011;54551;51.068;5.826;2023-03-11T04:59:18;11.07;;;4.50;;
67751;SDS011;54551;51.068;5.826;2023-03-11T05:01:45;12.40;;;4.60;;
67751;SDS011;54551;51.068;5.826;2023-03-11T05:04:11;13.23;;;4.57;;
67751;SDS011;54551;51.068;5.826;2023-03-11T05:06:38;10.80;;;4.60;;
67751;SDS011;54551;51.068;5.826;2023-03-11T05:09:04;11.07;;;4.57;;
67751;SDS011;54551;51.068;5.826;2023-03-11T05:11:33;11.33;;;5.07;;
67751;SDS011;54551;51.068;5.826;2023-03-11T05:13:59;11.77;;;4.27;;
67751;SDS011;54551;51.068;5.826;2023-03-11T05:16:25;15.77;;;4.90;;
67751;SDS011;54551;51.068;5.826;2023-03-11T05:18:51;9.47;;;4.50;;
67751;SDS011;54551;51.068;5.826;2023-03-11T05:21:17;10.07;;;4.37;;
67751;SDS011;54551;51.068;5.826;2023-03-11T05:23:43;14.93;;;5.10;;
67751;SDS011;54551;51.068;5.826;2023-03-11T05:26:10;13.77;;;5.37;;
67751;SDS011;54551;51.068;5.826;2023-03-11T05:28:40;16.13;;;5.20;;
67751;SDS011;54551;51.068;5.826;2023-03-11T05:31:07;11.20;;;5.40;;
67751;SDS011;54551;51.068;5.826;2023-03-11T05:33:35;12.67;;;5.20;;
67751;SDS011;54551;51.068;5.826;2023-03-11T05:36:06;11.57;;;5.07;;
67751;SDS011;54551;51.068;5.826;2023-03-11T05:38:36;9.80;;;4.90;;
67751;SDS011;54551;51.068;5.826;2023-03-11T05:41:02;11.27;;;4.73;;
67751;SDS011;54551;51.068;5.826;2023-03-11T05:43:30;12.03;;;5.30;;
67751;SDS011;54551;51.068;5.826;2023-03-11T05:45:56;12.13;;;5.20;;
67751;SDS011;54551;51.068;5.826;2023-03-11T05:48:22;9.87;;;5.03;;
67751;SDS011;54551;51.068;5.826;2023-03-11T05:50:48;11.90;;;5.30;;
67751;SDS011;54551;51.068;5.826;2023-03-11T05:53:14;15.60;;;6.03;;
67751;SDS011;54551;51.068;5.826;2023-03-11T05:55:41;9.23;;;4.83;;
67751;SDS011;54551;51.068;5.826;2023-03-11T05:58:08;15.03;;;5.40;;
67751;SDS011;54551;51.068;5.826;2023-03-11T06:00:34;10.20;;;5.97;;
67751;SDS011;54551;51.068;5.826;2023-03-11T06:03:02;10.90;;;4.90;;
67751;SDS011;54551;51.068;5.826;2023-03-11T06:05:28;8.40;;;5.20;;
67751;SDS011;54551;51.068;5.826;2023-03-11T06:07:55;10.37;;;5.40;;
67751;SDS011;54551;51.068;5.826;2023-03-11T06:10:21;10.73;;;5.73;;
67751;SDS011;54551;51.068;5.826;2023-03-11T06:12:47;16.50;;;6.13;;
67751;SDS011;54551;51.068;5.826;2023-03-11T06:15:21;11.50;;;5.17;;
67751;SDS011;54551;51.068;5.826;2023-03-11T06:17:48;8.17;;;5.20;;
67751;SDS011;54551;51.068;5.826;2023-03-11T06:20:14;11.40;;;5.93;;
67751;SDS011;54551;51.068;5.826;2023-03-11T06:22:41;15.33;;;5.90;;
67751;SDS011;54551;51.068;5.826;2023-03-11T06:25:07;9.83;;;4.97;;
67751;SDS011;54551;51.068;5.826;2023-03-11T06:27:35;9.93;;;5.10;;
67751;SDS011;54551;51.068;5.826;2023-03-11T06:30:01;9.87;;;5.37;;
67751;SDS011;54551;51.068;5.826;2023-03-11T06:32:31;12.40;;;5.93;;
67751;SDS011;54551;51.068;5.826;2023-03-11T06:34:59;10.63;;;5.33;;
67751;SDS011;54551;51.068;5.826;2023-03-11T06:37:25;11.17;;;5.43;;
67751;SDS011;54551;51.068;5.826;2023-03-11T06:39:51;10.00;;;6.07;;
67751;SDS011;54551;51.068;5.826;2023-03-11T06:42:20;8.67;;;5.37;;
67751;SDS011;54551;51.068;5.826;2023-03-11T06:44:49;10.10;;;5.90;;
67751;SDS011;54551;51.068;5.826;2023-03-11T06:47:15;11.40;;;6.20;;
67751;SDS011;54551;51.068;5.826;2023-03-11T06:49:41;9.43;;;5.43;;
67751;SDS011;54551;51.068;5.826;2023-03-11T06:52:07;10.43;;;5.30;;
67751;SDS011;54551;51.068;5.826;2023-03-11T06:54:34;10.63;;;5.57;;
67751;SDS011;54551;51.068;5.826;2023-03-11T06:57:01;10.03;;;6.13;;
67751;SDS011;54551;51.068;5.826;2023-03-11T06:59:27;12.53;;;6.20;;
67751;SDS011;54551;51.068;5.826;2023-03-11T07:01:54;13.23;;;6.03;;
67751;SDS011;54551;51.068;5.826;2023-03-11T07:04:20;12.47;;;6.00;;
67751;SDS011;54551;51.068;5.826;2023-03-11T07:06:47;14.53;;;7.27;;
67751;SDS011;54551;51.068;5.826;2023-03-11T07:09:17;10.70;;;5.77;;
67751;SDS011;54551;51.068;5.826;2023-03-11T07:11:46;9.27;;;6.37;;
67751;SDS011;54551;51.068;5.826;2023-03-11T07:14:17;8.37;;;5.77;;
67751;SDS011;54551;51.068;5.826;2023-03-11T07:16:47;12.33;;;5.97;;
67751;SDS011;54551;51.068;5.826;2023-03-11T07:19:30;12.43;;;5.90;;
67751;SDS011;54551;51.068;5.826;2023-03-11T07:21:56;11.10;;;6.00;;
67751;SDS011;54551;51.068;5.826;2023-03-11T07:24:22;8.57;;;5.83;;
67751;SDS011;54551;51.068;5.826;2023-03-11T07:26:48;12.20;;;6.17;;
67751;SDS011;54551;51.068;5.826;2023-03-11T07:29:14;13.67;;;5.90;;
67751;SDS011;54551;51.068;5.826;2023-03-11T07:31:40;11.43;;;6.40;;
67751;SDS011;54551;51.068;5.826;2023-03-11T07:34:06;10.90;;;6.10;;
67751;SDS011;54551;51.068;5.826;2023-03-11T07:36:36;9.77;;;6.13;;
67751;SDS011;54551;51.068;5.826;2023-03-11T07:39:04;9.00;;;5.70;;
67751;SDS011;54551;51.068;5.826;2023-03-11T07:41:31;12.23;;;6.17;;
67751;SDS011;54551;51.068;5.826;2023-03-11T07:43:58;9.57;;;6.07;;
67751;SDS011;54551;51.068;5.826;2023-03-11T07:46:25;9.10;;;5.13;;
67751;SDS011;54551;51.068;5.826;2023-03-11T07:48:52;10.90;;;6.03;;
67751;SDS011;54551;51.068;5.826;2023-03-11T07:51:21;12.50;;;5.80;;
67751;SDS011;54551;51.068;5.826;2023-03-11T07:53:50;14.13;;;5.63;;
67751;SDS011;54551;51.068;5.826;2023-03-11T07:56:17;8.13;;;5.07;;
67751;SDS011;54551;51.068;5.826;2023-03-11T07:58:47;9.30;;;5.20;;
67751;SDS011;54551;51.068;5.826;2023-03-11T08:01:18;6.33;;;4.33;;
67751;SDS011;54551;51.068;5.826;2023-03-11T08:03:47;8.77;;;4.73;;
67751;SDS011;54551;51.068;5.826;2023-03-11T08:06:14;8.70;;;5.27;;
67751;SDS011;54551;51.068;5.826;2023-03-11T08:08:43;7.73;;;4.43;;
67751;SDS011;54551;51.068;5.826;2023-03-11T08:11:09;9.43;;;5.50;;
67751;SDS011;54551;51.068;5.826;2023-03-11T08:13:40;9.37;;;5.33;;
67751;SDS011;54551;51.068;5.826;2023-03-11T08:16:07;8.97;;;5.17;;
67751;SDS011;54551;51.068;5.826;2023-03-11T08:18:34;8.60;;;5.17;;
67751;SDS011;54551;51.068;5.826;2023-03-11T08:21:04;10.47;;;5.20;;
67751;SDS011;54551;51.068;5.826;2023-03-11T08:23:35;11.87;;;5.63;;
67751;SDS011;54551;51.068;5.826;2023-03-11T08:26:02;7.70;;;5.30;;
67751;SDS011;54551;51.068;5.826;2023-03-11T08:28:29;7.93;;;4.50;;
67751;SDS011;54551;51.068;5.826;2023-03-11T08:30:55;8.67;;;5.10;;
67751;SDS011;54551;51.068;5.826;2023-03-11T08:33:21;8.77;;;4.63;;
67751;SDS011;54551;51.068;5.826;2023-03-11T08:35:47;7.53;;;4.40;;
67751;SDS011;54551;51.068;5.826;2023-03-11T08:38:13;7.80;;;4.10;;
67751;SDS011;54551;51.068;5.826;2023-03-11T08:40:39;6.93;;;4.60;;
67751;SDS011;54551;51.068;5.826;2023-03-11T08:43:05;7.97;;;4.63;;
67751;SDS011;54551;51.068;5.826;2023-03-11T08:45:32;8.40;;;4.67;;
67751;SDS011;54551;51.068;5.826;2023-03-11T08:47:58;8.83;;;4.47;;
67751;SDS011;54551;51.068;5.826;2023-03-11T08:50:24;10.57;;;7.90;;
67751;SDS011;54551;51.068;5.826;2023-03-11T08:52:50;6.40;;;4.67;;
67751;SDS011;54551;51.068;5.826;2023-03-11T08:55:16;4.50;;;3.37;;
67751;SDS011;54551;51.068;5.826;2023-03-11T08:57:49;6.70;;;3.47;;
67751;SDS011;54551;51.068;5.826;2023-03-11T09:00:15;7.30;;;3.70;;
67751;SDS011;54551;51.068;5.826;2023-03-11T09:02:42;8.30;;;3.77;;
67751;SDS011;54551;51.068;5.826;2023-03-11T09:05:08;8.57;;;3.47;;
67751;SDS011;54551;51.068;5.826;2023-03-11T09:07:34;5.20;;;3.17;;
67751;SDS011;54551;51.068;5.826;2023-03-11T09:10:00;7.70;;;3.30;;
67751;SDS011;54551;51.068;5.826;2023-03-11T09:12:26;5.60;;;3.17;;
67751;SDS011;54551;51.068;5.826;2023-03-11T09:14:52;7.07;;;3.20;;
67751;SDS011;54551;51.068;5.826;2023-03-11T09:17:20;5.73;;;3.57;;
67751;SDS011;54551;51.068;5.826;2023-03-11T09:19:46;4.70;;;3.10;;
67751;SDS011;54551;51.068;5.826;2023-03-11T09:22:12;7.17;;;3.30;;
67751;SDS011;54551;51.068;5.826;2023-03-11T09:24:38;8.77;;;3.13;;
67751;SDS011;54551;51.068;5.826;2023-03-11T09:27:04;4.77;;;2.90;;
67751;SDS011;54551;51.068;5.826;2023-03-11T09:29:30;4.17;;;2.23;;
67751;SDS011;54551;51.068;5.826;2023-03-11T09:31:56;3.13;;;2.10;;
67751;SDS011;54551;51.068;5.826;2023-03-11T09:34:22;4.47;;;2.67;;
67751;SDS011;54551;51.068;5.826;2023-03-11T09:36:48;6.17;;;2.17;;
67751;SDS011;54551;51.068;5.826;2023-03-11T09:39:14;3.27;;;1.70;;
67751;SDS011;54551;51.068;5.826;2023-03-11T09:41:54;4.43;;;2.23;;
67751;SDS011;54551;51.068;5.826;2023-03-11T09:55:44;7.50;;;2.20;;
67751;SDS011;54551;51.068;5.826;2023-03-11T10:00:58;4.33;;;1.73;;
67751;SDS011;54551;51.068;5.826;2023-03-11T10:03:30;1.87;;;1.23;;
67751;SDS011;54551;51.068;5.826;2023-03-11T10:11:56;3.63;;;1.73;;
67751;SDS011;54551;51.068;5.826;2023-03-11T10:17:44;1.73;;;1.10;;
67751;SDS011;54551;51.068;5.826;2023-03-11T10:20:28;2.37;;;1.07;;
67751;SDS011;54551;51.068;5.826;2023-03-11T10:28:42;4.47;;;1.10;;
67751;SDS011;54551;51.068;5.826;2023-03-11T10:34:13;5.10;;;1.30;;
67751;SDS011;54551;51.068;5.826;2023-03-11T10:36:58;5.40;;;1.53;;
67751;SDS011;54551;51.068;5.826;2023-03-11T10:39:26;3.20;;;0.90;;
67751;SDS011;54551;51.068;5.826;2023-03-11T10:47:02;3.87;;;1.33;;
67751;SDS011;54551;51.068;5.826;2023-03-11T10:49:28;5.57;;;1.30;;
67751;SDS011;54551;51.068;5.826;2023-03-11T10:51:54;2.97;;;1.53;;
67751;SDS011;54551;51.068;5.826;2023-03-11T10:54:23;6.27;;;1.37;;
67751;SDS011;54551;51.068;5.826;2023-03-11T10:57:03;4.73;;;1.50;;
67751;SDS011;54551;51.068;5.826;2023-03-11T10:59:44;6.70;;;1.87;;
67751;SDS011;54551;51.068;5.826;2023-03-11T11:02:32;5.10;;;1.60;;
67751;SDS011;54551;51.068;5.826;2023-03-11T11:08:00;4.10;;;1.40;;
67751;SDS011;54551;51.068;5.826;2023-03-11T11:10:31;5.53;;;1.67;;
67751;SDS011;54551;51.068;5.826;2023-03-11T11:12:59;2.97;;;1.30;;
67751;SDS011;54551;51.068;5.826;2023-03-11T11:15:36;3.73;;;1.53;;
67751;SDS011;54551;51.068;5.826;2023-03-11T11:20:51;2.67;;;1.27;;
67751;SDS011;54551;51.068;5.826;2023-03-11T11:26:13;3.27;;;1.37;;
67751;SDS011;54551;51.068;5.826;2023-03-11T11:31:47;7.87;;;3.33;;
67751;SDS011;54551;51.068;5.826;2023-03-11T11:34:28;3.63;;;1.57;;
67751;SDS011;54551;51.068;5.826;2023-03-11T11:36:59;1.33;;;1.10;;
67751;SDS011;54551;51.068;5.826;2023-03-11T11:39:32;6.83;;;2.13;;
67751;SDS011;54551;51.068;5.826;2023-03-11T11:42:09;2.97;;;1.40;;
67751;SDS011;54551;51.068;5.826;2023-03-11T11:44:38;3.60;;;1.40;;
67751;SDS011;54551;51.068;5.826;2023-03-11T11:47:11;4.20;;;2.30;;
67751;SDS011;54551;51.068;5.826;2023-03-11T11:50:00;3.23;;;1.53;;
67751;SDS011;54551;51.068;5.826;2023-03-11T11:52:52;2.83;;;1.43;;
67751;SDS011;54551;51.068;5.826;2023-03-11T11:55:20;4.17;;;1.47;;
67751;SDS011;54551;51.068;5.826;2023-03-11T11:57:48;4.27;;;2.00;;
67751;SDS011;54551;51.068;5.826;2023-03-11T12:00:19;3.90;;;1.60;;
67751;SDS011;54551;51.068;5.826;2023-03-11T12:03:00;4.23;;;1.57;;
67751;SDS011;54551;51.068;5.826;2023-03-11T12:05:35;4.13;;;1.57;;
67751;SDS011;54551;51.068;5.826;2023-03-11T12:11:03;4.10;;;1.67;;
67751;SDS011;54551;51.068;5.826;2023-03-11T12:17:01;6.10;;;1.40;;
67751;SDS011;54551;51.068;5.826;2023-03-11T12:19:30;4.23;;;1.30;;
67751;SDS011;54551;51.068;5.826;2023-03-11T12:30:20;3.47;;;1.30;;
67751;SDS011;54551;51.068;5.826;2023-03-11T12:32:52;2.67;;;1.40;;
67751;SDS011;54551;51.068;5.826;2023-03-11T12:46:08;5.87;;;1.60;;
67751;SDS011;54551;51.068;5.826;2023-03-11T12:48:49;3.63;;;1.60;;
67751;SDS011;54551;51.068;5.826;2023-03-11T13:05:28;3.57;;;1.20;;
67751;SDS011;54551;51.068;5.826;2023-03-11T13:08:22;3.03;;;1.40;;
67751;SDS011;54551;51.068;5.826;2023-03-11T13:10:52;2.73;;;1.30;;
67751;SDS011;54551;51.068;5.826;2023-03-11T13:13:30;3.47;;;1.20;;
67751;SDS011;54551;51.068;5.826;2023-03-11T13:18:44;1.93;;;1.17;;
67751;SDS011;54551;51.068;5.826;2023-03-11T13:40:56;6.37;;;1.73;;
67751;SDS011;54551;51.068;5.826;2023-03-11T13:43:24;2.47;;;1.30;;
67751;SDS011;54551;51.068;5.826;2023-03-11T13:48:43;2.87;;;1.50;;
67751;SDS011;54551;51.068;5.826;2023-03-11T13:51:23;2.80;;;1.63;;
67751;SDS011;54551;51.068;5.826;2023-03-11T13:56:47;3.93;;;1.57;;
67751;SDS011;54551;51.068;5.826;2023-03-11T13:59:28;4.40;;;1.53;;
67751;SDS011;54551;51.068;5.826;2023-03-11T14:04:31;4.30;;;1.37;;
67751;SDS011;54551;51.068;5.826;2023-03-11T14:07:22;3.97;;;1.73;;
67751;SDS011;54551;51.068;5.826;2023-03-11T14:09:49;2.67;;;1.43;;
67751;SDS011;54551;51.068;5.826;2023-03-11T14:12:15;2.27;;;1.37;;
67751;SDS011;54551;51.068;5.826;2023-03-11T14:14:42;2.57;;;1.40;;
67751;SDS011;54551;51.068;5.826;2023-03-11T14:17:20;5.00;;;1.40;;
67751;SDS011;54551;51.068;5.826;2023-03-11T14:22:52;2.50;;;1.47;;
67751;SDS011;54551;51.068;5.826;2023-03-11T14:25:27;2.93;;;1.30;;
67751;SDS011;54551;51.068;5.826;2023-03-11T14:27:59;2.97;;;1.60;;
67751;SDS011;54551;51.068;5.826;2023-03-11T14:30:30;3.07;;;1.47;;
67751;SDS011;54551;51.068;5.826;2023-03-11T14:32:59;3.77;;;1.50;;
67751;SDS011;54551;51.068;5.826;2023-03-11T14:36:00;2.93;;;1.47;;
67751;SDS011;54551;51.068;5.826;2023-03-11T14:38:29;3.03;;;1.43;;
67751;SDS011;54551;51.068;5.826;2023-03-11T14:41:00;3.03;;;1.40;;
67751;SDS011;54551;51.068;5.826;2023-03-11T14:43:31;3.33;;;1.90;;
67751;SDS011;54551;51.068;5.826;2023-03-11T14:45:59;4.23;;;1.63;;
67751;SDS011;54551;51.068;5.826;2023-03-11T14:48:28;1.47;;;1.20;;
67751;SDS011;54551;51.068;5.826;2023-03-11T14:51:04;2.37;;;1.33;;
67751;SDS011;54551;51.068;5.826;2023-03-11T14:53:45;4.63;;;1.70;;
67751;SDS011;54551;51.068;5.826;2023-03-11T14:56:34;5.10;;;1.50;;
67751;SDS011;54551;51.068;5.826;2023-03-11T14:59:05;3.57;;;1.50;;
67751;SDS011;54551;51.068;5.826;2023-03-11T15:01:41;2.40;;;1.40;;
67751;SDS011;54551;51.068;5.826;2023-03-11T15:04:28;4.03;;;1.63;;
67751;SDS011;54551;51.068;5.826;2023-03-11T15:06:57;3.93;;;1.83;;
67751;SDS011;54551;51.068;5.826;2023-03-11T15:09:24;3.80;;;1.33;;
67751;SDS011;54551;51.068;5.826;2023-03-11T15:11:59;3.10;;;1.23;;
67751;SDS011;54551;51.068;5.826;2023-03-11T15:14:32;5.50;;;1.73;;
67751;SDS011;54551;51.068;5.826;2023-03-11T15:17:17;3.50;;;1.53;;
67751;SDS011;54551;51.068;5.826;2023-03-11T15:19:43;4.03;;;1.47;;
67751;SDS011;54551;51.068;5.826;2023-03-11T15:24:54;3.53;;;1.63;;
67751;SDS011;54551;51.068;5.826;2023-03-11T15:27:26;2.57;;;1.20;;
67751;SDS011;54551;51.068;5.826;2023-03-11T15:29:54;3.17;;;1.33;;
67751;SDS011;54551;51.068;5.826;2023-03-11T15:35:11;5.27;;;1.63;;
67751;SDS011;54551;51.068;5.826;2023-03-11T15:37:39;3.23;;;1.30;;
67751;SDS011;54551;51.068;5.826;2023-03-11T15:40:25;4.17;;;1.80;;
67751;SDS011;54551;51.068;5.826;2023-03-11T15:43:16;6.13;;;2.03;;
67751;SDS011;54551;51.068;5.826;2023-03-11T15:45:45;4.63;;;1.63;;
67751;SDS011;54551;51.068;5.826;2023-03-11T15:48:13;6.03;;;3.03;;
67751;SDS011;54551;51.068;5.826;2023-03-11T15:50:52;5.30;;;1.87;;
67751;SDS011;54551;51.068;5.826;2023-03-11T15:53:20;18.33;;;9.30;;
67751;SDS011;54551;51.068;5.826;2023-03-11T15:55:46;16.47;;;8.77;;
67751;SDS011;54551;51.068;5.826;2023-03-11T15:58:13;4.70;;;1.93;;
67751;SDS011;54551;51.068;5.826;2023-03-11T16:00:51;7.73;;;4.17;;
67751;SDS011;54551;51.068;5.826;2023-03-11T16:03:20;24.87;;;12.47;;
67751;SDS011;54551;51.068;5.826;2023-03-11T16:05:47;3.83;;;1.60;;
67751;SDS011;54551;51.068;5.826;2023-03-11T16:08:13;3.43;;;1.43;;
67751;SDS011;54551;51.068;5.826;2023-03-11T16:10:40;3.70;;;1.40;;
67751;SDS011;54551;51.068;5.826;2023-03-11T16:13:09;3.13;;;1.50;;
67751;SDS011;54551;51.068;5.826;2023-03-11T16:15:40;3.60;;;1.43;;
67751;SDS011;54551;51.068;5.826;2023-03-11T16:18:07;5.20;;;1.63;;
67751;SDS011;54551;51.068;5.826;2023-03-11T16:20:44;5.07;;;1.80;;
67751;SDS011;54551;51.068;5.826;2023-03-11T16:23:17;5.23;;;1.33;;
67751;SDS011;54551;51.068;5.826;2023-03-11T16:25:46;5.20;;;1.23;;
67751;SDS011;54551;51.068;5.826;2023-03-11T16:28:14;17.43;;;5.90;;
67751;SDS011;54551;51.068;5.826;2023-03-11T16:30:40;9.83;;;4.87;;
67751;SDS011;54551;51.068;5.826;2023-03-11T16:33:07;14.83;;;5.60;;
67751;SDS011;54551;51.068;5.826;2023-03-11T16:35:33;4.50;;;1.60;;
67751;SDS011;54551;51.068;5.826;2023-03-11T16:37:59;2.87;;;1.47;;
67751;SDS011;54551;51.068;5.826;2023-03-11T16:40:26;5.03;;;1.50;;
67751;SDS011;54551;51.068;5.826;2023-03-11T16:42:58;5.90;;;1.43;;
67751;SDS011;54551;51.068;5.826;2023-03-11T16:45:26;5.53;;;1.50;;
67751;SDS011;54551;51.068;5.826;2023-03-11T16:47:52;2.47;;;1.27;;
67751;SDS011;54551;51.068;5.826;2023-03-11T16:50:18;2.87;;;1.50;;
67751;SDS011;54551;51.068;5.826;2023-03-11T16:52:45;4.23;;;1.50;;
67751;SDS011;54551;51.068;5.826;2023-03-11T16:55:11;4.30;;;1.67;;
67751;SDS011;54551;51.068;5.826;2023-03-11T16:57:37;4.40;;;1.60;;
67751;SDS011;54551;51.068;5.826;2023-03-11T17:00:04;4.03;;;1.40;;
67751;SDS011;54551;51.068;5.826;2023-03-11T17:02:31;5.10;;;1.50;;
67751;SDS011;54551;51.068;5.826;2023-03-11T17:04:57;5.07;;;1.47;;
67751;SDS011;54551;51.068;5.826;2023-03-11T17:07:23;2.73;;;1.50;;
67751;SDS011;54551;51.068;5.826;2023-03-11T17:09:49;5.00;;;1.77;;
67751;SDS011;54551;51.068;5.826;2023-03-11T17:12:15;2.43;;;1.53;;
67751;SDS011;54551;51.068;5.826;2023-03-11T17:14:43;3.23;;;1.87;;
67751;SDS011;54551;51.068;5.826;2023-03-11T17:17:10;4.10;;;1.70;;